createdAt,value
2022-12-15T00:01:07.086Z,11.03
2022-12-15T00:04:25.438Z,8.90
2022-12-15T00:07:42.848Z,12.82
2022-12-15T00:11:00.561Z,11.18
2022-12-15T00:14:17.967Z,11.52
2022-12-15T00:17:38.364Z,11.23
2022-12-15T00:20:55.963Z,13.55
2022-12-15T00:24:13.816Z,14.43
2022-12-15T00:27:31.235Z,10.75
2022-12-15T00:30:49.890Z,13.20
2022-12-15T00:34:10.483Z,10.65
2022-12-15T00:37:27.836Z,8.18
2022-12-15T00:40:33.326Z,9.73
2022-12-15T00:43:39.363Z,10.38
2022-12-15T00:46:59.927Z,11.85
2022-12-15T00:50:20.893Z,9.30
2022-12-15T00:53:40.547Z,12.13
2022-12-15T00:56:58.080Z,8.90
2022-12-15T01:00:15.740Z,12.23
2022-12-15T01:03:35.522Z,9.50
2022-12-15T01:06:56.384Z,13.38
2022-12-15T01:10:14.182Z,14.48
2022-12-15T01:13:32.332Z,10.00
2022-12-15T01:16:50.539Z,9.95
2022-12-15T01:20:08.332Z,13.50
2022-12-15T01:23:16.474Z,9.63
2022-12-15T01:26:22.006Z,12.25
2022-12-15T01:29:27.389Z,10.02
2022-12-15T01:32:32.782Z,13.02
2022-12-15T01:35:38.167Z,12.38
2022-12-15T01:38:50.725Z,12.00
2022-12-15T01:41:56.631Z,10.32
2022-12-15T01:45:17.105Z,13.35
2022-12-15T01:48:24.146Z,12.43
2022-12-15T01:51:31.815Z,11.65
2022-12-15T01:54:41.761Z,12.80
2022-12-15T01:57:47.361Z,12.25
2022-12-15T02:00:52.818Z,14.23
2022-12-15T02:03:58.318Z,14.45
2022-12-15T02:07:03.677Z,14.63
2022-12-15T02:10:13.237Z,14.32
2022-12-15T02:13:22.788Z,12.00
2022-12-15T02:16:33.169Z,11.48
2022-12-15T02:19:53.556Z,12.73
2022-12-15T02:23:16.758Z,13.63
2022-12-15T02:26:42.309Z,14.65
2022-12-15T02:30:00.405Z,14.60
2022-12-15T02:33:18.025Z,14.55
2022-12-15T02:36:27.728Z,14.38
2022-12-15T02:39:33.145Z,13.38
2022-12-15T02:42:40.360Z,11.60
2022-12-15T02:45:52.465Z,14.18
2022-12-15T02:49:03.745Z,14.25
2022-12-15T02:52:14.172Z,13.52
2022-12-15T02:55:23.227Z,13.45
2022-12-15T02:58:33.235Z,14.52
2022-12-15T03:01:40.481Z,13.68
2022-12-15T03:04:48.638Z,17.45
2022-12-15T03:07:54.469Z,12.40
2022-12-15T03:11:00.478Z,14.90
2022-12-15T03:14:05.855Z,12.73
2022-12-15T03:17:11.453Z,12.88
2022-12-15T03:20:19.486Z,14.25
2022-12-15T03:26:29.883Z,12.68
2022-12-15T03:29:35.393Z,15.38
2022-12-15T03:32:40.734Z,13.88
2022-12-15T03:35:48.906Z,14.52
2022-12-15T03:38:54.501Z,12.45
2022-12-15T03:41:59.656Z,12.25
2022-12-15T03:45:05.437Z,15.02
2022-12-15T03:48:10.979Z,13.23
2022-12-15T03:51:19.786Z,13.77
2022-12-15T03:54:24.992Z,14.77
2022-12-15T03:57:30.555Z,15.23
2022-12-15T04:00:35.999Z,15.52
2022-12-15T04:03:41.726Z,14.30
2022-12-15T04:06:49.595Z,15.63
2022-12-15T04:09:55.041Z,12.82
2022-12-15T04:13:00.636Z,14.10
2022-12-15T04:16:06.290Z,16.48
2022-12-15T04:19:23.636Z,13.25
2022-12-15T04:22:31.917Z,19.27
2022-12-15T04:29:06.510Z,12.05
2022-12-15T04:32:24.113Z,15.57
2022-12-15T04:35:41.820Z,12.52
2022-12-15T04:39:02.065Z,15.55
2022-12-15T04:42:20.492Z,12.70
2022-12-15T04:45:39.745Z,13.75
2022-12-15T04:48:57.472Z,15.80
2022-12-15T04:52:15.183Z,15.13
2022-12-15T04:55:35.320Z,16.52
2022-12-15T04:58:52.668Z,15.93
2022-12-15T05:02:10.481Z,15.65
2022-12-15T05:08:45.729Z,13.30
2022-12-15T05:12:10.441Z,16.08
2022-12-15T05:15:28.442Z,17.23
2022-12-15T05:18:46.157Z,15.27
2022-12-15T05:22:03.906Z,14.52
2022-12-15T05:25:22.283Z,16.70
2022-12-15T05:28:42.888Z,15.73
2022-12-15T05:31:55.708Z,15.48
2022-12-15T05:35:01.522Z,14.48
2022-12-15T05:38:09.663Z,15.25
2022-12-15T05:41:15.495Z,17.73
2022-12-15T05:44:23.456Z,13.40
2022-12-15T05:47:29.103Z,17.08
2022-12-15T05:50:34.222Z,18.92
2022-12-15T05:53:40.270Z,17.85
2022-12-15T05:56:45.665Z,19.23
2022-12-15T05:59:53.741Z,18.02
2022-12-15T06:02:58.937Z,17.67
2022-12-15T06:06:04.837Z,16.88
2022-12-15T06:09:10.347Z,17.98
2022-12-15T06:12:15.903Z,17.05
2022-12-15T06:15:23.694Z,15.80
2022-12-15T06:18:30.931Z,14.88
2022-12-15T06:21:37.870Z,15.25
2022-12-15T06:24:43.417Z,12.70
2022-12-15T06:27:48.978Z,16.63
2022-12-15T06:30:58.129Z,17.70
2022-12-15T06:34:06.209Z,16.30
2022-12-15T06:37:11.448Z,19.58
2022-12-15T06:40:16.894Z,14.95
2022-12-15T06:43:22.295Z,20.50
2022-12-15T06:46:31.398Z,19.20
2022-12-15T06:49:36.621Z,18.98
2022-12-15T06:52:42.242Z,17.83
2022-12-15T06:55:47.826Z,17.35
2022-12-15T06:58:53.911Z,19.95
2022-12-15T07:02:01.904Z,25.90
2022-12-15T07:05:08.171Z,20.25
2022-12-15T07:08:14.330Z,25.80
2022-12-15T07:11:19.838Z,18.30
2022-12-15T07:14:26.139Z,20.30
2022-12-15T07:17:34.186Z,17.15
2022-12-15T07:20:40.059Z,21.52
2022-12-15T07:23:54.802Z,19.10
2022-12-15T07:27:02.036Z,24.95
2022-12-15T07:30:07.840Z,23.48
2022-12-15T07:33:16.069Z,21.48
2022-12-15T07:36:21.845Z,23.20
2022-12-15T07:39:27.714Z,22.02
2022-12-15T07:42:33.255Z,21.60
2022-12-15T07:45:38.963Z,22.75
2022-12-15T07:48:50.234Z,24.20
2022-12-15T07:51:58.795Z,22.85
2022-12-15T07:55:04.093Z,21.85
2022-12-15T07:58:09.657Z,25.63
2022-12-15T08:01:16.557Z,25.02
2022-12-15T08:04:24.441Z,24.70
2022-12-15T08:07:30.229Z,23.00
2022-12-15T08:10:35.324Z,23.40
2022-12-15T08:17:07.281Z,21.65
2022-12-15T08:20:15.776Z,19.10
2022-12-15T08:23:21.191Z,22.77
2022-12-15T08:26:30.313Z,22.55
2022-12-15T08:29:52.550Z,19.98
2022-12-15T08:32:58.433Z,23.25
2022-12-15T08:36:07.546Z,21.50
2022-12-15T08:39:12.934Z,18.25
2022-12-15T08:42:18.259Z,21.90
2022-12-15T08:45:23.849Z,17.35
2022-12-15T08:48:29.097Z,19.42
2022-12-15T08:51:37.365Z,18.58
2022-12-15T08:54:42.613Z,17.25
2022-12-15T08:57:48.250Z,16.50
2022-12-15T09:00:53.924Z,16.30
2022-12-15T09:03:59.797Z,21.77
2022-12-15T09:07:08.086Z,14.85
2022-12-15T09:13:18.538Z,16.55
2022-12-15T09:16:24.764Z,13.85
2022-12-15T09:19:30.525Z,18.45
2022-12-15T09:22:38.802Z,15.82
2022-12-15T09:25:44.940Z,14.15
2022-12-15T09:28:50.785Z,14.68
2022-12-15T09:31:56.490Z,14.88
2022-12-15T09:35:01.714Z,12.57
2022-12-15T09:38:11.822Z,14.60
2022-12-15T09:44:23.961Z,15.50
2022-12-15T09:47:34.058Z,15.00
2022-12-15T09:50:41.469Z,14.48
2022-12-15T09:53:55.025Z,14.27
2022-12-15T09:57:02.824Z,15.32
2022-12-15T10:00:11.536Z,16.55
2022-12-15T10:03:33.407Z,17.13
2022-12-15T10:06:42.715Z,14.73
2022-12-15T10:09:50.705Z,15.77
2022-12-15T10:13:02.077Z,16.38
2022-12-15T10:16:10.914Z,14.75
2022-12-15T10:19:17.319Z,18.77
2022-12-15T10:22:24.708Z,17.42
2022-12-15T10:25:33.521Z,18.00
2022-12-15T10:28:54.647Z,17.45
2022-12-15T10:32:05.299Z,21.58
2022-12-15T10:35:11.793Z,17.83
2022-12-15T10:38:25.384Z,18.17
2022-12-15T10:41:35.360Z,15.27
2022-12-15T10:44:41.875Z,14.48
2022-12-15T10:47:59.832Z,15.65
2022-12-15T10:51:19.715Z,18.77
2022-12-15T10:54:25.809Z,21.00
2022-12-15T10:57:35.593Z,15.43
2022-12-15T11:00:41.467Z,18.08
2022-12-15T11:03:47.286Z,17.08
2022-12-15T11:06:59.378Z,16.23
2022-12-15T11:10:05.404Z,22.27
2022-12-15T11:13:17.385Z,15.57
2022-12-15T11:16:23.032Z,17.80
2022-12-15T11:19:33.973Z,15.90
2022-12-15T11:22:43.777Z,16.33
2022-12-15T11:26:07.216Z,18.70
2022-12-15T11:32:21.636Z,19.52
2022-12-15T11:35:31.487Z,18.15
2022-12-15T11:38:42.631Z,15.18
2022-12-15T11:41:52.374Z,17.52
2022-12-15T11:45:03.342Z,17.05
2022-12-15T11:48:15.459Z,17.95
2022-12-15T11:51:25.131Z,16.77
2022-12-15T11:54:32.380Z,18.58
2022-12-15T11:57:47.608Z,17.98
2022-12-15T12:01:01.167Z,17.23
2022-12-15T12:04:13.477Z,19.40
2022-12-15T12:07:21.799Z,17.73
2022-12-15T12:13:34.803Z,18.33
2022-12-15T12:16:43.264Z,16.75
2022-12-15T12:20:13.002Z,18.45
2022-12-15T12:23:20.728Z,18.15
2022-12-15T12:26:29.809Z,17.73
2022-12-15T12:29:36.362Z,16.27
2022-12-15T12:32:45.590Z,19.80
2022-12-15T12:35:55.400Z,18.00
2022-12-15T12:39:01.277Z,15.18
2022-12-15T12:42:10.640Z,20.45
2022-12-15T12:45:17.262Z,18.08
2022-12-15T12:48:27.544Z,18.35
2022-12-15T12:51:36.876Z,22.08
2022-12-15T12:54:50.243Z,23.05
2022-12-15T12:57:56.708Z,20.15
2022-12-15T13:01:17.017Z,16.30
2022-12-15T13:04:37.376Z,19.70
2022-12-15T13:07:45.550Z,19.80
2022-12-15T13:10:56.189Z,20.63
2022-12-15T13:14:01.693Z,18.07
2022-12-15T13:17:25.870Z,20.45
2022-12-15T13:20:33.095Z,21.35
2022-12-15T13:23:48.608Z,21.38
2022-12-15T13:26:56.055Z,20.30
2022-12-15T13:30:02.887Z,21.23
2022-12-15T13:33:18.194Z,23.70
2022-12-15T13:36:41.441Z,22.60
2022-12-15T13:40:01.825Z,32.50
2022-12-15T13:43:35.456Z,22.35
2022-12-15T13:46:47.384Z,29.90
2022-12-15T13:50:01.341Z,23.17
2022-12-15T13:53:20.112Z,24.88
2022-12-15T13:56:43.161Z,24.20
2022-12-15T13:59:50.781Z,21.90
2022-12-15T14:03:07.018Z,21.17
2022-12-15T14:06:16.216Z,25.45
2022-12-15T14:09:24.417Z,29.13
2022-12-15T14:12:29.818Z,22.88
2022-12-15T14:15:35.676Z,20.70
2022-12-15T14:18:45.740Z,20.15
2022-12-15T14:21:56.840Z,21.50
2022-12-15T14:25:03.198Z,20.85
2022-12-15T14:28:26.421Z,20.80
2022-12-15T14:31:31.580Z,23.45
2022-12-15T14:34:42.306Z,19.25
2022-12-15T14:37:47.724Z,19.90
2022-12-15T14:40:56.309Z,19.88
2022-12-15T14:47:30.663Z,21.23
2022-12-15T14:50:38.624Z,19.35
2022-12-15T14:53:44.913Z,20.60
2022-12-15T14:56:59.450Z,18.73
2022-12-15T15:00:18.948Z,22.80
2022-12-15T15:03:16.014Z,21.88
2022-12-15T15:03:25.896Z,19.67
2022-12-15T15:06:36.354Z,22.98
2022-12-15T15:09:42.705Z,21.90
2022-12-15T15:12:49.235Z,22.08
2022-12-15T15:15:54.959Z,22.30
2022-12-15T15:19:00.587Z,21.77
2022-12-15T15:22:09.135Z,23.45
2022-12-15T15:25:40.246Z,21.58
2022-12-15T15:28:46.960Z,21.10
2022-12-15T15:31:55.799Z,21.17
2022-12-15T15:35:01.428Z,17.80
2022-12-15T15:38:24.802Z,26.58
2022-12-15T15:41:32.105Z,28.73
2022-12-15T15:44:37.869Z,24.95
2022-12-15T15:47:43.625Z,30.30
2022-12-15T15:50:49.725Z,25.98
2022-12-15T15:53:58.343Z,26.58
2022-12-15T15:57:03.946Z,28.10
2022-12-15T16:00:17.154Z,24.50
2022-12-15T16:03:23.017Z,26.13
2022-12-15T16:06:28.514Z,26.52
2022-12-15T16:09:36.412Z,20.98
2022-12-15T16:12:43.878Z,23.55
2022-12-15T16:15:49.684Z,29.00
2022-12-15T16:18:55.257Z,21.88
2022-12-15T16:22:00.859Z,24.13
2022-12-15T16:25:10.099Z,23.08
2022-12-15T16:28:17.476Z,22.50
2022-12-15T16:31:35.669Z,21.38
2022-12-15T16:34:45.944Z,25.10
2022-12-15T16:37:51.553Z,22.63
2022-12-15T16:41:01.273Z,24.38
2022-12-15T16:44:06.705Z,30.65
2022-12-15T16:47:11.902Z,25.60
2022-12-15T16:50:18.067Z,26.10
2022-12-15T16:53:25.273Z,24.30
2022-12-15T16:56:33.522Z,24.30
2022-12-15T16:59:38.970Z,34.97
2022-12-15T17:02:44.809Z,27.65
2022-12-15T17:05:51.628Z,25.63
2022-12-15T17:08:58.326Z,30.92
2022-12-15T17:12:06.646Z,25.60
2022-12-15T17:15:18.948Z,29.05
2022-12-15T17:18:24.007Z,27.52
2022-12-15T17:21:30.902Z,25.85
2022-12-15T17:24:36.522Z,25.58
2022-12-15T17:27:44.496Z,24.38
2022-12-15T17:30:50.468Z,27.25
2022-12-15T17:33:56.595Z,29.50
2022-12-15T17:37:03.214Z,24.38
2022-12-15T17:40:17.625Z,23.30
2022-12-15T17:43:33.621Z,25.30
2022-12-15T17:46:41.365Z,24.23
2022-12-15T17:49:47.536Z,28.08
2022-12-15T17:52:53.376Z,25.17
2022-12-15T17:55:58.506Z,19.60
2022-12-15T17:59:06.579Z,25.90
2022-12-15T18:02:14.423Z,26.20
2022-12-15T18:08:25.911Z,22.85
2022-12-15T18:11:31.048Z,31.17
2022-12-15T18:14:39.137Z,24.40
2022-12-15T18:17:45.356Z,29.70
2022-12-15T18:20:50.745Z,32.72
2022-12-15T18:23:55.868Z,33.65
2022-12-15T18:27:01.262Z,30.33
2022-12-15T18:30:09.972Z,30.35
2022-12-15T18:33:15.642Z,28.02
2022-12-15T18:36:21.178Z,24.75
2022-12-15T18:39:26.882Z,25.38
2022-12-15T18:42:32.209Z,25.75
2022-12-15T18:45:40.268Z,23.15
2022-12-15T18:48:46.199Z,25.20
2022-12-15T18:51:52.033Z,27.05
2022-12-15T18:54:57.594Z,27.30
2022-12-15T18:58:03.124Z,28.15
2022-12-15T19:01:11.737Z,26.70
2022-12-15T19:04:17.355Z,22.33
2022-12-15T19:07:22.680Z,26.95
2022-12-15T19:10:28.685Z,26.60
2022-12-15T19:13:35.771Z,22.23
2022-12-15T19:17:08.194Z,28.65
2022-12-15T19:20:31.194Z,23.75
2022-12-15T19:23:37.021Z,24.35
2022-12-15T19:26:43.961Z,24.67
2022-12-15T19:29:49.158Z,23.70
2022-12-15T19:32:57.204Z,25.02
2022-12-15T19:36:02.286Z,24.95
2022-12-15T19:39:08.193Z,26.05
2022-12-15T19:42:18.872Z,42.63
2022-12-15T19:45:25.991Z,28.20
2022-12-15T19:48:34.216Z,29.58
2022-12-15T19:51:39.975Z,27.20
2022-12-15T19:54:46.017Z,25.50
2022-12-15T19:57:51.099Z,29.20
2022-12-15T20:00:56.770Z,30.23
2022-12-15T20:04:04.619Z,28.58
2022-12-15T20:07:09.998Z,27.30
2022-12-15T20:10:24.474Z,31.45
2022-12-15T20:13:33.819Z,28.83
2022-12-15T20:16:39.230Z,26.98
2022-12-15T20:19:47.444Z,33.97
2022-12-15T20:22:54.800Z,31.85
2022-12-15T20:26:00.983Z,44.75
2022-12-15T20:29:06.839Z,31.52
2022-12-15T20:32:17.253Z,29.98
2022-12-15T20:35:25.811Z,33.33
2022-12-15T20:38:32.778Z,33.05
2022-12-15T20:41:38.096Z,29.83
2022-12-15T20:44:43.816Z,36.30
2022-12-15T20:47:49.433Z,33.67
2022-12-15T20:50:57.631Z,30.35
2022-12-15T20:54:04.317Z,36.47
2022-12-15T20:57:09.664Z,47.60
2022-12-15T21:00:17.038Z,35.00
2022-12-15T21:03:24.235Z,30.00
2022-12-15T21:06:32.568Z,32.50
2022-12-15T21:09:37.893Z,35.88
2022-12-15T21:12:43.999Z,34.15
2022-12-15T21:15:50.072Z,36.15
2022-12-15T21:19:20.196Z,36.35
2022-12-15T21:22:26.028Z,36.13
2022-12-15T21:25:31.341Z,34.33
2022-12-15T21:28:36.639Z,33.88
2022-12-15T21:31:42.417Z,35.15
2022-12-15T21:34:47.959Z,33.13
2022-12-15T21:37:55.917Z,46.33
2022-12-15T21:41:05.107Z,38.72
2022-12-15T21:44:13.333Z,35.35
2022-12-15T21:47:26.461Z,35.53
2022-12-15T21:50:29.521Z,33.33
2022-12-15T21:53:37.579Z,30.95
2022-12-15T21:56:42.618Z,32.20
2022-12-15T21:59:48.121Z,31.88
2022-12-15T22:02:54.554Z,45.80
2022-12-15T22:06:00.208Z,33.55
2022-12-15T22:09:07.986Z,34.55
2022-12-15T22:12:19.366Z,32.97
2022-12-15T22:15:25.314Z,32.80
2022-12-15T22:18:31.577Z,30.42
2022-12-15T22:21:37.161Z,35.58
2022-12-15T22:24:45.087Z,32.55
2022-12-15T22:27:50.958Z,32.80
2022-12-15T22:30:57.906Z,33.15
2022-12-15T22:34:03.525Z,32.30
2022-12-15T22:37:08.974Z,26.83
2022-12-15T22:40:17.932Z,33.05
2022-12-15T22:43:25.332Z,31.55
2022-12-15T22:46:30.931Z,24.02
2022-12-15T22:49:38.265Z,31.77
2022-12-15T22:52:45.705Z,32.60
2022-12-15T22:55:54.054Z,33.38
2022-12-15T22:59:02.921Z,29.40
2022-12-15T23:02:08.308Z,30.92
2022-12-15T23:05:15.151Z,31.98
2022-12-15T23:08:20.733Z,30.88
2022-12-15T23:11:41.671Z,31.65
2022-12-15T23:14:59.354Z,33.45
2022-12-15T23:18:04.563Z,32.78
2022-12-15T23:21:10.885Z,30.50
2022-12-15T23:24:16.002Z,28.17
2022-12-15T23:27:24.180Z,27.88
2022-12-15T23:30:29.344Z,29.08
2022-12-15T23:33:35.580Z,33.78
2022-12-15T23:36:41.433Z,32.15
2022-12-15T23:39:47.112Z,30.05
2022-12-15T23:42:55.350Z,26.45
2022-12-15T23:46:02.278Z,28.55
2022-12-15T23:49:07.841Z,29.52
2022-12-15T23:52:13.602Z,33.05
2022-12-15T23:55:19.427Z,31.05
2022-12-15T23:58:27.640Z,29.55
